sensor_id;sensor_type;location;lat;lon;timestamp;temperature;humidity
21244;DHT22;10780;50.942;4.028;2023-04-19T00:01:21;10.20;99.90
21244;DHT22;10780;50.942;4.028;2023-04-19T00:03:49;10.20;99.90
21244;DHT22;10780;50.942;4.028;2023-04-19T00:06:14;10.20;99.90
21244;DHT22;10780;50.942;4.028;2023-04-19T00:08:41;10.10;99.90
21244;DHT22;10780;50.942;4.028;2023-04-19T00:11:07;10.20;99.90
21244;DHT22;10780;50.942;4.028;2023-04-19T00:13:33;10.10;99.90
21244;DHT22;10780;50.942;4.028;2023-04-19T00:15:59;10.20;99.90
21244;DHT22;10780;50.942;4.028;2023-04-19T00:18:25;10.10;99.90
21244;DHT22;10780;50.942;4.028;2023-04-19T00:20:51;10.10;99.90
21244;DHT22;10780;50.942;4.028;2023-04-19T00:23:16;10.10;99.90
21244;DHT22;10780;50.942;4.028;2023-04-19T00:25:44;10.10;99.90
21244;DHT22;10780;50.942;4.028;2023-04-19T00:28:10;10.00;99.90
21244;DHT22;10780;50.942;4.028;2023-04-19T00:30:36;9.90;99.90
21244;DHT22;10780;50.942;4.028;2023-04-19T00:33:01;9.90;99.90
21244;DHT22;10780;50.942;4.028;2023-04-19T00:35:27;9.80;99.90
21244;DHT22;10780;50.942;4.028;2023-04-19T00:37:53;9.80;99.90
21244;DHT22;10780;50.942;4.028;2023-04-19T00:40:18;9.70;99.90
21244;DHT22;10780;50.942;4.028;2023-04-19T00:42:44;9.60;99.90
21244;DHT22;10780;50.942;4.028;2023-04-19T00:45:10;9.70;99.90
21244;DHT22;10780;50.942;4.028;2023-04-19T00:47:36;9.70;99.90
21244;DHT22;10780;50.942;4.028;2023-04-19T00:50:03;9.70;99.90
21244;DHT22;10780;50.942;4.028;2023-04-19T00:52:29;9.80;99.90
21244;DHT22;10780;50.942;4.028;2023-04-19T00:54:57;9.70;99.90
21244;DHT22;10780;50.942;4.028;2023-04-19T00:57:24;9.70;99.90
21244;DHT22;10780;50.942;4.028;2023-04-19T00:59:50;9.60;99.90
21244;DHT22;10780;50.942;4.028;2023-04-19T01:02:16;9.60;99.90
21244;DHT22;10780;50.942;4.028;2023-04-19T01:04:42;9.50;99.90
21244;DHT22;10780;50.942;4.028;2023-04-19T01:07:08;9.50;99.90
21244;DHT22;10780;50.942;4.028;2023-04-19T01:09:34;9.60;99.90
21244;DHT22;10780;50.942;4.028;2023-04-19T01:12:00;9.50;99.90
21244;DHT22;10780;50.942;4.028;2023-04-19T01:14:27;9.50;99.90
21244;DHT22;10780;50.942;4.028;2023-04-19T01:16:53;9.40;99.90
21244;DHT22;10780;50.942;4.028;2023-04-19T01:19:19;9.30;99.90
21244;DHT22;10780;50.942;4.028;2023-04-19T01:21:45;9.40;99.90
21244;DHT22;10780;50.942;4.028;2023-04-19T01:24:11;9.30;99.90
21244;DHT22;10780;50.942;4.028;2023-04-19T01:26:37;9.40;99.90
21244;DHT22;10780;50.942;4.028;2023-04-19T01:29:02;9.30;99.90
21244;DHT22;10780;50.942;4.028;2023-04-19T01:31:28;9.30;99.90
21244;DHT22;10780;50.942;4.028;2023-04-19T01:33:54;9.40;99.90
21244;DHT22;10780;50.942;4.028;2023-04-19T01:36:19;9.30;99.90
21244;DHT22;10780;50.942;4.028;2023-04-19T01:38:45;9.30;99.90
21244;DHT22;10780;50.942;4.028;2023-04-19T01:41:12;9.30;99.90
21244;DHT22;10780;50.942;4.028;2023-04-19T01:43:38;9.30;99.90
21244;DHT22;10780;50.942;4.028;2023-04-19T01:46:03;9.30;99.90
21244;DHT22;10780;50.942;4.028;2023-04-19T01:48:29;9.30;99.90
21244;DHT22;10780;50.942;4.028;2023-04-19T01:50:55;9.30;99.90
21244;DHT22;10780;50.942;4.028;2023-04-19T01:53:20;9.20;99.90
21244;DHT22;10780;50.942;4.028;2023-04-19T01:55:46;9.20;99.90
21244;DHT22;10780;50.942;4.028;2023-04-19T01:58:12;9.20;99.90
21244;DHT22;10780;50.942;4.028;2023-04-19T02:00:37;9.10;99.90
21244;DHT22;10780;50.942;4.028;2023-04-19T02:03:03;9.10;99.90
21244;DHT22;10780;50.942;4.028;2023-04-19T02:05:28;9.10;99.90
21244;DHT22;10780;50.942;4.028;2023-04-19T02:07:54;9.10;99.90
21244;DHT22;10780;50.942;4.028;2023-04-19T02:10:20;9.10;99.90
21244;DHT22;10780;50.942;4.028;2023-04-19T02:12:45;9.10;99.90
21244;DHT22;10780;50.942;4.028;2023-04-19T02:15:11;9.10;99.90
21244;DHT22;10780;50.942;4.028;2023-04-19T02:17:36;9.10;99.90
21244;DHT22;10780;50.942;4.028;2023-04-19T02:20:03;9.10;99.90
21244;DHT22;10780;50.942;4.028;2023-04-19T02:22:30;9.10;99.90
21244;DHT22;10780;50.942;4.028;2023-04-19T02:24:55;9.20;99.90
21244;DHT22;10780;50.942;4.028;2023-04-19T02:27:21;9.10;99.90
21244;DHT22;10780;50.942;4.028;2023-04-19T02:29:47;9.10;99.90
21244;DHT22;10780;50.942;4.028;2023-04-19T02:32:12;9.10;99.90
21244;DHT22;10780;50.942;4.028;2023-04-19T02:34:38;9.00;99.90
21244;DHT22;10780;50.942;4.028;2023-04-19T02:37:04;9.10;99.90
21244;DHT22;10780;50.942;4.028;2023-04-19T02:39:30;9.20;99.90
21244;DHT22;10780;50.942;4.028;2023-04-19T02:41:56;9.30;99.90
21244;DHT22;10780;50.942;4.028;2023-04-19T02:44:22;9.30;99.90
21244;DHT22;10780;50.942;4.028;2023-04-19T02:46:49;9.30;99.90
21244;DHT22;10780;50.942;4.028;2023-04-19T02:49:15;9.40;99.90
21244;DHT22;10780;50.942;4.028;2023-04-19T02:51:40;9.50;99.90
21244;DHT22;10780;50.942;4.028;2023-04-19T02:54:06;9.60;99.90
21244;DHT22;10780;50.942;4.028;2023-04-19T02:56:31;9.60;99.90
21244;DHT22;10780;50.942;4.028;2023-04-19T02:59:00;9.70;99.90
21244;DHT22;10780;50.942;4.028;2023-04-19T03:01:26;9.80;99.90
21244;DHT22;10780;50.942;4.028;2023-04-19T03:03:51;9.90;99.90
21244;DHT22;10780;50.942;4.028;2023-04-19T03:06:17;10.00;99.90
21244;DHT22;10780;50.942;4.028;2023-04-19T03:08:42;10.10;99.90
21244;DHT22;10780;50.942;4.028;2023-04-19T03:11:10;10.10;99.90
21244;DHT22;10780;50.942;4.028;2023-04-19T03:13:36;10.10;99.90
21244;DHT22;10780;50.942;4.028;2023-04-19T03:16:01;10.10;99.90
21244;DHT22;10780;50.942;4.028;2023-04-19T03:18:27;10.20;99.90
21244;DHT22;10780;50.942;4.028;2023-04-19T03:20:54;10.20;99.90
21244;DHT22;10780;50.942;4.028;2023-04-19T03:23:19;10.20;99.90
21244;DHT22;10780;50.942;4.028;2023-04-19T03:25:45;10.30;99.90
21244;DHT22;10780;50.942;4.028;2023-04-19T03:28:11;10.40;99.90
21244;DHT22;10780;50.942;4.028;2023-04-19T03:30:36;10.50;99.90
21244;DHT22;10780;50.942;4.028;2023-04-19T03:33:02;10.50;99.90
21244;DHT22;10780;50.942;4.028;2023-04-19T03:35:27;10.50;99.90
21244;DHT22;10780;50.942;4.028;2023-04-19T03:37:55;10.50;99.90
21244;DHT22;10780;50.942;4.028;2023-04-19T03:40:20;10.50;99.90
21244;DHT22;10780;50.942;4.028;2023-04-19T03:42:46;10.50;99.90
21244;DHT22;10780;50.942;4.028;2023-04-19T03:45:12;10.60;99.90
21244;DHT22;10780;50.942;4.028;2023-04-19T03:47:37;10.60;99.90
21244;DHT22;10780;50.942;4.028;2023-04-19T03:50:03;10.60;99.90
21244;DHT22;10780;50.942;4.028;2023-04-19T03:52:29;10.60;99.90
21244;DHT22;10780;50.942;4.028;2023-04-19T03:54:54;10.60;99.90
21244;DHT22;10780;50.942;4.028;2023-04-19T03:57:20;10.70;99.90
21244;DHT22;10780;50.942;4.028;2023-04-19T03:59:46;10.70;99.90
21244;DHT22;10780;50.942;4.028;2023-04-19T04:02:12;10.60;99.90
21244;DHT22;10780;50.942;4.028;2023-04-19T04:04:37;10.70;99.90
21244;DHT22;10780;50.942;4.028;2023-04-19T04:07:03;10.70;99.90
21244;DHT22;10780;50.942;4.028;2023-04-19T04:09:29;10.70;99.90
21244;DHT22;10780;50.942;4.028;2023-04-19T04:11:55;10.80;99.90
21244;DHT22;10780;50.942;4.028;2023-04-19T04:14:20;10.80;99.90
21244;DHT22;10780;50.942;4.028;2023-04-19T04:16:46;10.80;99.90
21244;DHT22;10780;50.942;4.028;2023-04-19T04:19:12;10.70;99.90
21244;DHT22;10780;50.942;4.028;2023-04-19T04:21:37;10.60;99.90
21244;DHT22;10780;50.942;4.028;2023-04-19T04:24:03;10.50;99.90
21244;DHT22;10780;50.942;4.028;2023-04-19T04:26:29;10.50;99.90
21244;DHT22;10780;50.942;4.028;2023-04-19T04:28:59;10.50;99.90
21244;DHT22;10780;50.942;4.028;2023-04-19T04:31:26;10.40;99.90
21244;DHT22;10780;50.942;4.028;2023-04-19T04:33:52;10.40;99.90
21244;DHT22;10780;50.942;4.028;2023-04-19T04:36:19;10.40;99.90
21244;DHT22;10780;50.942;4.028;2023-04-19T04:38:45;10.40;99.90
21244;DHT22;10780;50.942;4.028;2023-04-19T04:41:10;10.40;99.90
21244;DHT22;10780;50.942;4.028;2023-04-19T04:43:36;10.40;99.90
21244;DHT22;10780;50.942;4.028;2023-04-19T04:46:02;10.30;99.90
21244;DHT22;10780;50.942;4.028;2023-04-19T04:48:28;10.30;99.90
21244;DHT22;10780;50.942;4.028;2023-04-19T04:50:56;10.30;99.90
21244;DHT22;10780;50.942;4.028;2023-04-19T04:53:21;10.10;99.90
21244;DHT22;10780;50.942;4.028;2023-04-19T04:55:48;10.10;99.90
21244;DHT22;10780;50.942;4.028;2023-04-19T04:58:13;10.10;99.90
21244;DHT22;10780;50.942;4.028;2023-04-19T05:00:39;10.10;99.90
21244;DHT22;10780;50.942;4.028;2023-04-19T05:03:05;10.10;99.90
21244;DHT22;10780;50.942;4.028;2023-04-19T05:05:30;10.20;99.90
21244;DHT22;10780;50.942;4.028;2023-04-19T05:07:56;10.10;99.90
21244;DHT22;10780;50.942;4.028;2023-04-19T05:10:22;10.10;99.90
21244;DHT22;10780;50.942;4.028;2023-04-19T05:12:47;10.10;99.90
21244;DHT22;10780;50.942;4.028;2023-04-19T05:15:13;10.20;99.90
21244;DHT22;10780;50.942;4.028;2023-04-19T05:17:39;10.30;99.90
21244;DHT22;10780;50.942;4.028;2023-04-19T05:20:05;10.30;99.90
21244;DHT22;10780;50.942;4.028;2023-04-19T05:22:30;10.40;99.90
21244;DHT22;10780;50.942;4.028;2023-04-19T05:24:56;10.40;99.90
21244;DHT22;10780;50.942;4.028;2023-04-19T05:27:22;10.50;99.90
21244;DHT22;10780;50.942;4.028;2023-04-19T05:29:47;10.60;99.90
21244;DHT22;10780;50.942;4.028;2023-04-19T05:32:15;10.70;99.90
21244;DHT22;10780;50.942;4.028;2023-04-19T05:34:41;10.60;99.90
21244;DHT22;10780;50.942;4.028;2023-04-19T05:37:06;10.60;99.90
21244;DHT22;10780;50.942;4.028;2023-04-19T05:39:32;10.70;99.90
21244;DHT22;10780;50.942;4.028;2023-04-19T05:41:58;10.70;99.90
21244;DHT22;10780;50.942;4.028;2023-04-19T05:44:24;10.70;99.90
21244;DHT22;10780;50.942;4.028;2023-04-19T05:46:50;10.80;99.90
21244;DHT22;10780;50.942;4.028;2023-04-19T05:49:15;10.80;99.90
21244;DHT22;10780;50.942;4.028;2023-04-19T05:51:41;10.80;99.90
21244;DHT22;10780;50.942;4.028;2023-04-19T05:54:07;10.80;99.90
21244;DHT22;10780;50.942;4.028;2023-04-19T05:56:37;10.90;99.90
21244;DHT22;10780;50.942;4.028;2023-04-19T05:59:02;11.00;99.90
21244;DHT22;10780;50.942;4.028;2023-04-19T06:01:28;11.20;99.90
21244;DHT22;10780;50.942;4.028;2023-04-19T06:03:54;11.20;99.90
21244;DHT22;10780;50.942;4.028;2023-04-19T06:06:23;11.20;99.90
21244;DHT22;10780;50.942;4.028;2023-04-19T06:08:49;11.20;99.90
21244;DHT22;10780;50.942;4.028;2023-04-19T06:11:15;11.20;99.90
21244;DHT22;10780;50.942;4.028;2023-04-19T06:13:41;11.30;99.90
21244;DHT22;10780;50.942;4.028;2023-04-19T06:16:08;11.40;99.90
21244;DHT22;10780;50.942;4.028;2023-04-19T06:18:34;11.40;99.90
21244;DHT22;10780;50.942;4.028;2023-04-19T06:20:59;11.50;99.90
21244;DHT22;10780;50.942;4.028;2023-04-19T06:23:25;11.60;99.90
21244;DHT22;10780;50.942;4.028;2023-04-19T06:25:51;11.60;99.90
21244;DHT22;10780;50.942;4.028;2023-04-19T06:28:17;11.60;99.90
21244;DHT22;10780;50.942;4.028;2023-04-19T06:30:44;11.60;99.90
21244;DHT22;10780;50.942;4.028;2023-04-19T06:33:09;11.60;99.90
21244;DHT22;10780;50.942;4.028;2023-04-19T06:35:35;11.60;99.90
21244;DHT22;10780;50.942;4.028;2023-04-19T06:38:01;11.60;99.90
21244;DHT22;10780;50.942;4.028;2023-04-19T06:40:26;11.70;99.90
21244;DHT22;10780;50.942;4.028;2023-04-19T06:42:54;11.90;99.90
21244;DHT22;10780;50.942;4.028;2023-04-19T06:45:20;12.10;99.90
21244;DHT22;10780;50.942;4.028;2023-04-19T06:47:46;12.20;99.90
21244;DHT22;10780;50.942;4.028;2023-04-19T06:50:11;12.40;99.90
21244;DHT22;10780;50.942;4.028;2023-04-19T06:52:38;12.50;99.90
21244;DHT22;10780;50.942;4.028;2023-04-19T06:55:05;12.80;99.90
21244;DHT22;10780;50.942;4.028;2023-04-19T06:57:32;12.70;99.90
21244;DHT22;10780;50.942;4.028;2023-04-19T06:59:57;12.60;99.90
21244;DHT22;10780;50.942;4.028;2023-04-19T07:02:23;12.60;99.90
21244;DHT22;10780;50.942;4.028;2023-04-19T07:04:49;12.60;99.90
21244;DHT22;10780;50.942;4.028;2023-04-19T07:07:15;12.70;99.90
21244;DHT22;10780;50.942;4.028;2023-04-19T07:09:41;12.70;99.90
21244;DHT22;10780;50.942;4.028;2023-04-19T07:12:06;13.00;99.90
21244;DHT22;10780;50.942;4.028;2023-04-19T07:14:32;13.00;99.90
21244;DHT22;10780;50.942;4.028;2023-04-19T07:16:58;13.00;99.90
21244;DHT22;10780;50.942;4.028;2023-04-19T07:19:24;13.10;99.90
21244;DHT22;10780;50.942;4.028;2023-04-19T07:21:51;13.10;99.90
21244;DHT22;10780;50.942;4.028;2023-04-19T07:24:17;13.20;99.90
21244;DHT22;10780;50.942;4.028;2023-04-19T07:26:42;13.20;99.90
21244;DHT22;10780;50.942;4.028;2023-04-19T07:29:08;13.30;99.90
21244;DHT22;10780;50.942;4.028;2023-04-19T07:31:34;13.30;99.90
21244;DHT22;10780;50.942;4.028;2023-04-19T07:34:01;13.40;99.90
21244;DHT22;10780;50.942;4.028;2023-04-19T07:36:26;13.40;99.90
21244;DHT22;10780;50.942;4.028;2023-04-19T07:38:52;13.60;99.90
21244;DHT22;10780;50.942;4.028;2023-04-19T07:41:18;13.80;99.90
21244;DHT22;10780;50.942;4.028;2023-04-19T07:43:44;14.10;99.90
21244;DHT22;10780;50.942;4.028;2023-04-19T07:46:11;14.20;99.90
21244;DHT22;10780;50.942;4.028;2023-04-19T07:48:37;14.10;99.90
21244;DHT22;10780;50.942;4.028;2023-04-19T07:51:12;14.00;99.90
21244;DHT22;10780;50.942;4.028;2023-04-19T07:53:39;14.00;99.90
21244;DHT22;10780;50.942;4.028;2023-04-19T07:56:09;13.90;99.90
21244;DHT22;10780;50.942;4.028;2023-04-19T07:58:35;13.90;99.90
21244;DHT22;10780;50.942;4.028;2023-04-19T08:01:01;13.90;99.90
21244;DHT22;10780;50.942;4.028;2023-04-19T08:03:28;13.90;99.90
21244;DHT22;10780;50.942;4.028;2023-04-19T08:05:54;13.80;99.90
21244;DHT22;10780;50.942;4.028;2023-04-19T08:08:20;13.80;99.90
21244;DHT22;10780;50.942;4.028;2023-04-19T08:10:46;13.70;99.90
21244;DHT22;10780;50.942;4.028;2023-04-19T08:13:12;13.80;99.90
21244;DHT22;10780;50.942;4.028;2023-04-19T08:15:38;14.00;99.90
21244;DHT22;10780;50.942;4.028;2023-04-19T08:18:04;14.10;99.90
21244;DHT22;10780;50.942;4.028;2023-04-19T08:20:30;14.20;99.90
21244;DHT22;10780;50.942;4.028;2023-04-19T08:22:57;14.30;99.90
21244;DHT22;10780;50.942;4.028;2023-04-19T08:25:23;14.20;99.90
21244;DHT22;10780;50.942;4.028;2023-04-19T08:27:56;14.00;99.90
21244;DHT22;10780;50.942;4.028;2023-04-19T08:30:23;14.10;99.90
21244;DHT22;10780;50.942;4.028;2023-04-19T08:32:49;14.10;99.90
21244;DHT22;10780;50.942;4.028;2023-04-19T08:35:15;14.20;99.90
21244;DHT22;10780;50.942;4.028;2023-04-19T08:37:41;14.20;99.90
21244;DHT22;10780;50.942;4.028;2023-04-19T08:40:08;14.20;99.90
21244;DHT22;10780;50.942;4.028;2023-04-19T08:42:36;14.20;99.90
21244;DHT22;10780;50.942;4.028;2023-04-19T08:45:03;14.20;99.90
21244;DHT22;10780;50.942;4.028;2023-04-19T08:47:33;14.20;99.90
21244;DHT22;10780;50.942;4.028;2023-04-19T08:50:00;14.20;99.90
21244;DHT22;10780;50.942;4.028;2023-04-19T08:52:26;14.30;99.90
21244;DHT22;10780;50.942;4.028;2023-04-19T08:54:53;14.40;99.90
21244;DHT22;10780;50.942;4.028;2023-04-19T08:57:19;14.40;99.90
21244;DHT22;10780;50.942;4.028;2023-04-19T08:59:45;14.60;99.90
21244;DHT22;10780;50.942;4.028;2023-04-19T09:02:15;14.70;99.90
21244;DHT22;10780;50.942;4.028;2023-04-19T09:04:41;14.80;99.90
21244;DHT22;10780;50.942;4.028;2023-04-19T09:07:06;14.80;99.90
21244;DHT22;10780;50.942;4.028;2023-04-19T09:09:35;14.90;99.90
21244;DHT22;10780;50.942;4.028;2023-04-19T09:12:01;14.90;99.90
21244;DHT22;10780;50.942;4.028;2023-04-19T09:14:28;15.00;99.90
21244;DHT22;10780;50.942;4.028;2023-04-19T09:16:53;15.00;99.90
21244;DHT22;10780;50.942;4.028;2023-04-19T09:19:48;15.00;99.90
21244;DHT22;10780;50.942;4.028;2023-04-19T09:22:14;15.10;99.90
21244;DHT22;10780;50.942;4.028;2023-04-19T09:24:42;15.10;99.90
21244;DHT22;10780;50.942;4.028;2023-04-19T09:27:08;15.30;99.90
21244;DHT22;10780;50.942;4.028;2023-04-19T09:29:36;15.40;99.90
21244;DHT22;10780;50.942;4.028;2023-04-19T09:32:02;15.30;99.90
21244;DHT22;10780;50.942;4.028;2023-04-19T09:34:28;15.30;99.90
21244;DHT22;10780;50.942;4.028;2023-04-19T09:36:55;15.30;99.90
21244;DHT22;10780;50.942;4.028;2023-04-19T09:39:31;15.20;99.90
21244;DHT22;10780;50.942;4.028;2023-04-19T09:41:57;15.30;99.90
21244;DHT22;10780;50.942;4.028;2023-04-19T09:44:23;15.40;99.90
21244;DHT22;10780;50.942;4.028;2023-04-19T09:46:49;15.50;99.90
21244;DHT22;10780;50.942;4.028;2023-04-19T09:49:23;15.50;99.90
21244;DHT22;10780;50.942;4.028;2023-04-19T09:51:50;15.60;99.90
21244;DHT22;10780;50.942;4.028;2023-04-19T09:54:18;15.80;99.90
21244;DHT22;10780;50.942;4.028;2023-04-19T09:56:45;15.80;99.90
21244;DHT22;10780;50.942;4.028;2023-04-19T09:59:11;15.90;99.90
21244;DHT22;10780;50.942;4.028;2023-04-19T10:01:38;15.90;99.90
21244;DHT22;10780;50.942;4.028;2023-04-19T10:04:04;15.90;99.90
21244;DHT22;10780;50.942;4.028;2023-04-19T10:06:31;15.90;99.90
21244;DHT22;10780;50.942;4.028;2023-04-19T10:09:00;15.90;99.90
21244;DHT22;10780;50.942;4.028;2023-04-19T10:11:34;16.00;99.90
21244;DHT22;10780;50.942;4.028;2023-04-19T10:14:05;16.20;99.90
21244;DHT22;10780;50.942;4.028;2023-04-19T10:16:32;16.30;99.90
21244;DHT22;10780;50.942;4.028;2023-04-19T10:18:59;16.40;99.90
21244;DHT22;10780;50.942;4.028;2023-04-19T10:21:26;16.30;99.90
21244;DHT22;10780;50.942;4.028;2023-04-19T10:23:54;16.30;99.90
21244;DHT22;10780;50.942;4.028;2023-04-19T10:26:20;16.20;99.90
21244;DHT22;10780;50.942;4.028;2023-04-19T10:28:46;16.10;99.90
21244;DHT22;10780;50.942;4.028;2023-04-19T10:31:12;16.10;99.90
21244;DHT22;10780;50.942;4.028;2023-04-19T10:33:39;16.20;99.90
21244;DHT22;10780;50.942;4.028;2023-04-19T10:36:08;16.40;99.90
21244;DHT22;10780;50.942;4.028;2023-04-19T10:38:43;16.70;99.90
21244;DHT22;10780;50.942;4.028;2023-04-19T10:41:11;16.70;99.90
21244;DHT22;10780;50.942;4.028;2023-04-19T10:43:39;16.60;99.90
21244;DHT22;10780;50.942;4.028;2023-04-19T10:48:39;16.70;99.90
21244;DHT22;10780;50.942;4.028;2023-04-19T10:51:16;16.80;99.90
21244;DHT22;10780;50.942;4.028;2023-04-19T10:54:00;16.70;99.90
21244;DHT22;10780;50.942;4.028;2023-04-19T11:01:50;17.00;99.90
21244;DHT22;10780;50.942;4.028;2023-04-19T11:07:04;17.50;99.90
21244;DHT22;10780;50.942;4.028;2023-04-19T11:09:37;17.80;99.90
21244;DHT22;10780;50.942;4.028;2023-04-19T11:12:09;17.90;99.90
21244;DHT22;10780;50.942;4.028;2023-04-19T11:14:43;17.90;99.90
21244;DHT22;10780;50.942;4.028;2023-04-19T11:17:21;17.90;99.90
21244;DHT22;10780;50.942;4.028;2023-04-19T11:19:56;17.80;99.90
21244;DHT22;10780;50.942;4.028;2023-04-19T11:24:51;18.30;99.90
21244;DHT22;10780;50.942;4.028;2023-04-19T11:27:16;18.00;99.90
21244;DHT22;10780;50.942;4.028;2023-04-19T11:29:42;17.70;99.90
21244;DHT22;10780;50.942;4.028;2023-04-19T11:32:08;17.50;99.90
21244;DHT22;10780;50.942;4.028;2023-04-19T11:34:39;17.30;99.90
21244;DHT22;10780;50.942;4.028;2023-04-19T11:37:04;17.40;99.90
21244;DHT22;10780;50.942;4.028;2023-04-19T11:39:30;17.60;99.90
21244;DHT22;10780;50.942;4.028;2023-04-19T11:41:56;17.90;99.90
21244;DHT22;10780;50.942;4.028;2023-04-19T11:44:22;18.40;99.90
21244;DHT22;10780;50.942;4.028;2023-04-19T11:47:02;18.60;99.90
21244;DHT22;10780;50.942;4.028;2023-04-19T11:49:32;18.60;99.90
21244;DHT22;10780;50.942;4.028;2023-04-19T11:52:02;18.50;99.90
21244;DHT22;10780;50.942;4.028;2023-04-19T11:54:29;18.40;99.90
21244;DHT22;10780;50.942;4.028;2023-04-19T11:57:07;18.30;99.90
21244;DHT22;10780;50.942;4.028;2023-04-19T11:59:35;18.30;99.90
21244;DHT22;10780;50.942;4.028;2023-04-19T12:02:18;18.30;99.90
21244;DHT22;10780;50.942;4.028;2023-04-19T12:04:44;18.40;99.90
21244;DHT22;10780;50.942;4.028;2023-04-19T12:07:10;18.30;99.90
21244;DHT22;10780;50.942;4.028;2023-04-19T12:09:35;18.10;99.90
21244;DHT22;10780;50.942;4.028;2023-04-19T12:12:01;18.10;99.90
21244;DHT22;10780;50.942;4.028;2023-04-19T12:14:28;18.20;99.90
21244;DHT22;10780;50.942;4.028;2023-04-19T12:19:37;18.30;99.90
21244;DHT22;10780;50.942;4.028;2023-04-19T12:22:16;18.10;99.90
21244;DHT22;10780;50.942;4.028;2023-04-19T12:24:44;18.00;99.90
21244;DHT22;10780;50.942;4.028;2023-04-19T12:27:10;18.00;99.90
21244;DHT22;10780;50.942;4.028;2023-04-19T12:29:37;17.80;99.90
21244;DHT22;10780;50.942;4.028;2023-04-19T12:32:03;17.80;99.90
21244;DHT22;10780;50.942;4.028;2023-04-19T12:34:29;17.80;99.90
21244;DHT22;10780;50.942;4.028;2023-04-19T12:36:55;17.80;99.90
21244;DHT22;10780;50.942;4.028;2023-04-19T12:39:21;17.70;99.90
21244;DHT22;10780;50.942;4.028;2023-04-19T12:41:48;17.90;99.90
21244;DHT22;10780;50.942;4.028;2023-04-19T12:44:14;17.80;99.90
21244;DHT22;10780;50.942;4.028;2023-04-19T12:46:40;17.80;99.90
21244;DHT22;10780;50.942;4.028;2023-04-19T12:49:06;17.80;99.90
21244;DHT22;10780;50.942;4.028;2023-04-19T12:51:32;17.70;99.90
21244;DHT22;10780;50.942;4.028;2023-04-19T12:53:58;17.70;99.90
21244;DHT22;10780;50.942;4.028;2023-04-19T12:56:24;17.80;99.90
21244;DHT22;10780;50.942;4.028;2023-04-19T12:58:49;17.90;99.90
21244;DHT22;10780;50.942;4.028;2023-04-19T13:01:15;17.90;99.90
21244;DHT22;10780;50.942;4.028;2023-04-19T13:03:41;17.80;99.90
21244;DHT22;10780;50.942;4.028;2023-04-19T13:06:07;17.80;99.90
21244;DHT22;10780;50.942;4.028;2023-04-19T13:08:32;17.80;99.90
21244;DHT22;10780;50.942;4.028;2023-04-19T13:10:58;17.70;99.90
21244;DHT22;10780;50.942;4.028;2023-04-19T13:13:27;17.60;99.90
21244;DHT22;10780;50.942;4.028;2023-04-19T13:15:53;17.60;99.90
21244;DHT22;10780;50.942;4.028;2023-04-19T13:18:19;17.50;99.90
21244;DHT22;10780;50.942;4.028;2023-04-19T13:20:45;17.50;99.90
21244;DHT22;10780;50.942;4.028;2023-04-19T13:23:11;17.70;99.90
21244;DHT22;10780;50.942;4.028;2023-04-19T13:25:37;17.60;99.90
21244;DHT22;10780;50.942;4.028;2023-04-19T13:28:02;17.50;99.90
21244;DHT22;10780;50.942;4.028;2023-04-19T13:30:28;17.40;99.90
21244;DHT22;10780;50.942;4.028;2023-04-19T13:32:53;17.40;99.90
21244;DHT22;10780;50.942;4.028;2023-04-19T13:35:19;17.40;99.90
21244;DHT22;10780;50.942;4.028;2023-04-19T13:37:45;17.40;99.90
21244;DHT22;10780;50.942;4.028;2023-04-19T13:40:12;17.30;99.90
21244;DHT22;10780;50.942;4.028;2023-04-19T13:42:37;17.30;99.90
21244;DHT22;10780;50.942;4.028;2023-04-19T13:45:03;17.20;99.90
21244;DHT22;10780;50.942;4.028;2023-04-19T13:47:29;17.20;99.90
21244;DHT22;10780;50.942;4.028;2023-04-19T13:49:55;17.20;99.90
21244;DHT22;10780;50.942;4.028;2023-04-19T13:52:21;17.10;99.90
21244;DHT22;10780;50.942;4.028;2023-04-19T13:54:48;17.20;99.90
21244;DHT22;10780;50.942;4.028;2023-04-19T13:57:14;17.20;99.90
21244;DHT22;10780;50.942;4.028;2023-04-19T13:59:39;17.20;99.90
21244;DHT22;10780;50.942;4.028;2023-04-19T14:02:05;17.40;99.90
21244;DHT22;10780;50.942;4.028;2023-04-19T14:04:31;17.40;99.90
21244;DHT22;10780;50.942;4.028;2023-04-19T14:06:57;17.40;99.90
21244;DHT22;10780;50.942;4.028;2023-04-19T14:09:23;17.40;99.90
21244;DHT22;10780;50.942;4.028;2023-04-19T14:11:49;17.30;99.90
21244;DHT22;10780;50.942;4.028;2023-04-19T14:14:15;17.40;99.90
21244;DHT22;10780;50.942;4.028;2023-04-19T14:16:41;17.40;99.90
21244;DHT22;10780;50.942;4.028;2023-04-19T14:19:07;17.40;99.90
21244;DHT22;10780;50.942;4.028;2023-04-19T14:21:33;17.40;99.90
21244;DHT22;10780;50.942;4.028;2023-04-19T14:23:59;17.30;99.90
21244;DHT22;10780;50.942;4.028;2023-04-19T14:26:24;17.40;99.90
21244;DHT22;10780;50.942;4.028;2023-04-19T14:28:50;17.60;99.90
21244;DHT22;10780;50.942;4.028;2023-04-19T14:31:16;17.60;99.90
21244;DHT22;10780;50.942;4.028;2023-04-19T14:33:41;17.70;99.90
21244;DHT22;10780;50.942;4.028;2023-04-19T14:36:07;18.10;99.90
21244;DHT22;10780;50.942;4.028;2023-04-19T14:38:33;18.60;99.90
21244;DHT22;10780;50.942;4.028;2023-04-19T14:40:59;19.20;99.90
21244;DHT22;10780;50.942;4.028;2023-04-19T14:43:25;19.60;99.90
21244;DHT22;10780;50.942;4.028;2023-04-19T14:45:51;20.00;99.80
21244;DHT22;10780;50.942;4.028;2023-04-19T14:48:17;20.00;98.10
21244;DHT22;10780;50.942;4.028;2023-04-19T14:50:44;20.20;97.40
21244;DHT22;10780;50.942;4.028;2023-04-19T14:53:09;20.40;96.70
21244;DHT22;10780;50.942;4.028;2023-04-19T14:55:38;20.40;96.60
21244;DHT22;10780;50.942;4.028;2023-04-19T14:58:04;20.70;95.70
21244;DHT22;10780;50.942;4.028;2023-04-19T15:00:30;20.70;93.40
21244;DHT22;10780;50.942;4.028;2023-04-19T15:02:59;20.90;93.00
21244;DHT22;10780;50.942;4.028;2023-04-19T15:05:25;20.90;91.50
21244;DHT22;10780;50.942;4.028;2023-04-19T15:07:52;21.20;91.70
21244;DHT22;10780;50.942;4.028;2023-04-19T15:10:17;20.80;92.30
21244;DHT22;10780;50.942;4.028;2023-04-19T15:12:43;21.10;90.90
21244;DHT22;10780;50.942;4.028;2023-04-19T15:15:09;21.20;91.30
21244;DHT22;10780;50.942;4.028;2023-04-19T15:17:35;21.30;91.40
21244;DHT22;10780;50.942;4.028;2023-04-19T15:20:01;21.40;91.00
21244;DHT22;10780;50.942;4.028;2023-04-19T15:22:27;21.90;91.30
21244;DHT22;10780;50.942;4.028;2023-04-19T15:24:53;22.20;89.80
21244;DHT22;10780;50.942;4.028;2023-04-19T15:27:19;22.20;89.40
21244;DHT22;10780;50.942;4.028;2023-04-19T15:29:46;22.10;87.60
21244;DHT22;10780;50.942;4.028;2023-04-19T15:32:11;21.50;86.60
21244;DHT22;10780;50.942;4.028;2023-04-19T15:34:37;21.50;85.70
21244;DHT22;10780;50.942;4.028;2023-04-19T15:37:02;21.40;85.30
21244;DHT22;10780;50.942;4.028;2023-04-19T15:39:30;21.20;84.10
21244;DHT22;10780;50.942;4.028;2023-04-19T15:41:56;21.10;84.20
21244;DHT22;10780;50.942;4.028;2023-04-19T15:44:23;20.70;82.90